createdAt,value
2023-01-02T00:02:49.103Z,-0.28
2023-01-02T00:05:55.310Z,-0.42
2023-01-02T00:09:03.077Z,-0.55
2023-01-02T00:12:09.541Z,-0.46
2023-01-02T00:15:16.121Z,-0.45
2023-01-02T00:18:22.534Z,-0.35
2023-01-02T00:21:28.739Z,-0.54
2023-01-02T00:24:36.608Z,-0.38
2023-01-02T00:27:43.215Z,-0.71
2023-01-02T00:30:49.825Z,-0.39
2023-01-02T00:33:56.272Z,-0.38
2023-01-02T00:37:02.600Z,-0.26
2023-01-02T00:40:14.116Z,-0.56
2023-01-02T00:43:20.393Z,-1.15
2023-01-02T00:46:26.779Z,-1.23
2023-01-02T00:49:33.127Z,-1.12
2023-01-02T00:52:39.464Z,-1.18
2023-01-02T00:55:47.471Z,-0.72
2023-01-02T00:58:53.531Z,-0.93
2023-01-02T01:02:00.107Z,-0.80
2023-01-02T01:05:07.537Z,-0.42
2023-01-02T01:08:13.826Z,-0.31
2023-01-02T01:11:21.419Z,-0.92
2023-01-02T01:14:28.051Z,-0.62
2023-01-02T01:17:34.701Z,-0.26
2023-01-02T01:20:40.937Z,-0.29
2023-01-02T01:23:51.615Z,-0.53
2023-01-02T01:26:59.115Z,-0.69
2023-01-02T01:30:05.582Z,-0.70
2023-01-02T01:33:11.756Z,-0.88
2023-01-02T01:36:20.832Z,-0.58
2023-01-02T01:39:27.132Z,-1.15
2023-01-02T01:42:35.911Z,-1.07
2023-01-02T01:45:45.003Z,-1.29
2023-01-02T01:48:58.975Z,-1.51
2023-01-02T01:52:08.222Z,-1.63
2023-01-02T01:55:20.071Z,-0.98
2023-01-02T01:58:31.761Z,-0.99
2023-01-02T02:01:38.776Z,-0.86
2023-01-02T02:04:46.631Z,-0.74
2023-01-02T02:08:04.099Z,-0.88
2023-01-02T02:11:11.402Z,-0.58
2023-01-02T02:14:19.479Z,-0.36
2023-01-02T02:17:36.407Z,-0.56
2023-01-02T02:20:51.416Z,-0.96
2023-01-02T02:24:30.725Z,-1.21
2023-01-02T02:28:03.170Z,-1.22
2023-01-02T02:31:15.974Z,-1.16
2023-01-02T02:34:28.433Z,-1.08
2023-01-02T02:37:41.625Z,-1.19
2023-01-02T02:40:57.846Z,-0.83
2023-01-02T02:44:13.733Z,-0.93
2023-01-02T02:47:29.668Z,-0.95
2023-01-02T02:50:40.551Z,-1.20
2023-01-02T02:53:52.379Z,-1.64
2023-01-02T02:57:00.961Z,-1.88
2023-01-02T03:00:10.228Z,-1.85
2023-01-02T03:03:20.355Z,-1.58
2023-01-02T03:06:45.924Z,-1.61
2023-01-02T03:10:00.765Z,-1.19
2023-01-02T03:13:15.407Z,-1.23
2023-01-02T03:16:26.823Z,-0.96
2023-01-02T03:19:41.714Z,-0.93
2023-01-02T03:22:53.271Z,-1.03
2023-01-02T03:26:00.120Z,-1.17
2023-01-02T03:29:11.356Z,-1.37
2023-01-02T03:32:24.704Z,-1.68
2023-01-02T03:35:37.585Z,-1.42
2023-01-02T03:38:50.059Z,-1.28
2023-01-02T03:42:00.270Z,-1.22
2023-01-02T03:45:10.920Z,-1.41
2023-01-02T03:48:25.108Z,-1.93
2023-01-02T03:51:33.620Z,-1.97
2023-01-02T03:54:39.887Z,-1.96
2023-01-02T03:57:57.491Z,-2.02
2023-01-02T04:01:08.009Z,-2.05
2023-01-02T04:04:19.763Z,-1.94
2023-01-02T04:07:31.814Z,-1.29
2023-01-02T04:10:39.956Z,-1.44
2023-01-02T04:13:52.327Z,-1.10
2023-01-02T04:17:00.956Z,-1.03
2023-01-02T04:20:12.146Z,-1.03
2023-01-02T04:23:23.306Z,-1.18
2023-01-02T04:26:35.133Z,-1.30
2023-01-02T04:29:42.173Z,-1.66
2023-01-02T04:32:49.389Z,-1.90
2023-01-02T04:35:55.869Z,-2.02
2023-01-02T04:39:03.591Z,-1.80
2023-01-02T04:42:09.726Z,-1.89
2023-01-02T04:45:16.252Z,-2.27
2023-01-02T04:48:22.671Z,-2.61
2023-01-02T04:51:29.012Z,-2.28
2023-01-02T04:54:36.674Z,-2.41
2023-01-02T04:57:43.229Z,-2.35
2023-01-02T05:00:49.215Z,-2.16
2023-01-02T05:03:55.444Z,-2.05
2023-01-02T05:07:01.601Z,-1.59
2023-01-02T05:10:10.423Z,-1.79
2023-01-02T05:13:16.840Z,-1.69
2023-01-02T05:16:22.909Z,-1.74
2023-01-02T05:19:29.056Z,-2.06
2023-01-02T05:22:53.183Z,-2.27
2023-01-02T05:26:00.932Z,-2.04
2023-01-02T05:29:07.140Z,-2.06
2023-01-02T05:32:13.471Z,-2.17
2023-01-02T05:35:20.178Z,-2.40
2023-01-02T05:38:26.582Z,-2.58
2023-01-02T05:41:34.232Z,-2.70
2023-01-02T05:44:40.846Z,-2.54
2023-01-02T05:47:47.084Z,-2.11
2023-01-02T05:50:53.864Z,-2.46
2023-01-02T05:54:00.211Z,-2.09
2023-01-02T05:57:07.980Z,-2.03
2023-01-02T06:00:15.576Z,-1.82
2023-01-02T06:03:22.087Z,-1.49
2023-01-02T06:06:36.575Z,-1.61
2023-01-02T06:09:42.952Z,-1.47
2023-01-02T06:12:50.646Z,-1.44
2023-01-02T06:15:56.995Z,-1.55
2023-01-02T06:19:03.265Z,-1.36
2023-01-02T06:22:09.828Z,-1.39
2023-01-02T06:25:16.698Z,-1.23
2023-01-02T06:28:24.450Z,-1.14
2023-01-02T06:31:33.614Z,-1.13
2023-01-02T06:34:40.233Z,-1.40
2023-01-02T06:37:46.724Z,-1.54
2023-01-02T06:40:57.349Z,-1.08
2023-01-02T06:44:05.165Z,-0.98
2023-01-02T06:47:11.643Z,-0.76
2023-01-02T06:50:19.764Z,-1.27
2023-01-02T06:53:27.770Z,-1.18
2023-01-02T06:56:34.340Z,-1.05
2023-01-02T06:59:42.012Z,-0.66
2023-01-02T07:02:48.386Z,-0.31
2023-01-02T07:05:55.037Z,-0.10
2023-01-02T07:09:01.463Z,0.06
2023-01-02T07:12:07.897Z,0.30
2023-01-02T07:15:15.427Z,0.26
2023-01-02T07:18:21.928Z,0.17
2023-01-02T07:21:28.134Z,0.38
2023-01-02T07:24:34.623Z,0.63
2023-01-02T07:27:40.844Z,0.61
2023-01-02T07:30:48.259Z,0.42
2023-01-02T07:33:54.401Z,0.36
2023-01-02T07:37:00.684Z,0.85
2023-01-02T07:40:07.790Z,0.72
2023-01-02T07:43:13.764Z,0.82
2023-01-02T07:46:22.003Z,1.18
2023-01-02T07:49:28.159Z,1.71
2023-01-02T07:52:34.572Z,2.12
2023-01-02T07:55:40.772Z,2.32
2023-01-02T07:58:47.303Z,2.26
2023-01-02T08:01:55.335Z,1.91
2023-01-02T08:05:01.822Z,2.31
2023-01-02T08:08:09.176Z,2.51
2023-01-02T08:11:17.755Z,2.81
2023-01-02T08:14:24.108Z,3.08
2023-01-02T08:17:31.983Z,3.01
2023-01-02T08:20:38.175Z,3.26
2023-01-02T08:23:44.544Z,3.49
2023-01-02T08:26:50.898Z,3.58
2023-01-02T08:29:57.002Z,3.52
2023-01-02T08:33:04.643Z,3.77
2023-01-02T08:36:11.604Z,3.90
2023-01-02T08:39:18.039Z,4.15
2023-01-02T08:42:24.096Z,4.49
2023-01-02T08:45:30.753Z,4.65
2023-01-02T08:48:38.407Z,4.50
2023-01-02T08:51:45.041Z,4.68
2023-01-02T08:54:51.245Z,5.07
2023-01-02T08:57:57.592Z,5.20
2023-01-02T09:01:03.955Z,5.09
2023-01-02T09:04:13.320Z,5.52
2023-01-02T09:07:19.852Z,5.51
2023-01-02T09:10:26.439Z,5.46
2023-01-02T09:13:32.991Z,5.68
2023-01-02T09:16:39.416Z,5.70
2023-01-02T09:19:47.274Z,6.26
2023-01-02T09:22:53.840Z,6.50
2023-01-02T09:26:00.858Z,6.58
2023-01-02T09:29:07.055Z,6.36
2023-01-02T09:32:13.633Z,6.65
2023-01-02T09:35:21.353Z,6.93
2023-01-02T09:38:27.747Z,7.33
2023-01-02T09:41:37.323Z,7.25
2023-01-02T09:44:47.672Z,7.20
2023-01-02T09:47:57.222Z,7.14
2023-01-02T09:51:07.887Z,7.48
2023-01-02T09:54:21.167Z,7.73
2023-01-02T09:57:41.533Z,7.80
2023-01-02T10:00:51.446Z,7.82
2023-01-02T10:04:07.567Z,8.10
2023-01-02T10:07:24.651Z,8.43
2023-01-02T10:10:38.594Z,8.38
2023-01-02T10:14:17.928Z,8.46
2023-01-02T10:17:18.262Z,8.33
2023-01-02T10:20:28.815Z,8.51
2023-01-02T10:23:40.904Z,9.02
2023-01-02T10:26:53.468Z,9.13
2023-01-02T10:30:08.299Z,9.39
2023-01-02T10:33:20.774Z,9.69
2023-01-02T10:36:28.959Z,9.81
2023-01-02T10:39:36.769Z,10.02
2023-01-02T10:42:43.422Z,10.22
2023-01-02T10:45:49.863Z,10.16
2023-01-02T10:48:56.520Z,10.13
2023-01-02T10:52:07.726Z,10.01
2023-01-02T10:55:15.371Z,10.52
2023-01-02T10:58:24.304Z,10.77
2023-01-02T11:01:31.330Z,11.29
2023-01-02T11:04:44.325Z,11.08
2023-01-02T11:07:53.349Z,11.16
2023-01-02T11:11:01.855Z,11.47
2023-01-02T11:14:11.616Z,11.55
2023-01-02T11:17:20.083Z,11.90
2023-01-02T11:20:29.362Z,12.03
2023-01-02T11:23:39.252Z,12.05
2023-01-02T11:26:48.934Z,11.78
2023-01-02T11:29:55.619Z,11.92
2023-01-02T11:33:09.864Z,12.06
2023-01-02T11:36:18.677Z,11.82
2023-01-02T11:39:27.141Z,12.13
2023-01-02T11:42:58.696Z,11.98
2023-01-02T11:46:10.726Z,12.27
2023-01-02T11:49:20.970Z,12.49
2023-01-02T11:52:35.393Z,13.03
2023-01-02T11:55:47.652Z,12.73
2023-01-02T11:59:02.519Z,13.08
2023-01-02T12:02:16.905Z,13.36
2023-01-02T12:05:34.836Z,13.62
2023-01-02T12:09:02.024Z,13.54
2023-01-02T12:12:24.909Z,13.66
2023-01-02T12:16:10.758Z,13.93
2023-01-02T12:19:54.534Z,14.00
2023-01-02T12:23:25.897Z,14.24
2023-01-02T12:26:37.656Z,14.21
2023-01-02T12:29:57.586Z,14.47
2023-01-02T12:33:42.940Z,14.33
2023-01-02T12:36:57.091Z,14.67
2023-01-02T12:40:35.145Z,14.71
2023-01-02T12:43:58.417Z,14.72
2023-01-02T12:47:24.902Z,14.43
2023-01-02T12:50:51.270Z,14.43
2023-01-02T12:54:18.781Z,14.04
2023-01-02T12:57:34.504Z,14.28
2023-01-02T13:00:56.740Z,14.63
2023-01-02T13:04:15.670Z,14.60
2023-01-02T13:07:32.771Z,14.64
2023-01-02T13:10:40.280Z,15.34
2023-01-02T13:13:46.986Z,15.22
2023-01-02T13:17:04.682Z,15.02
2023-01-02T13:20:21.595Z,14.73
2023-01-02T13:23:34.601Z,15.13
2023-01-02T13:26:41.503Z,14.81
2023-01-02T13:29:47.814Z,14.62
2023-01-02T13:32:54.438Z,14.86
2023-01-02T13:36:04.095Z,14.90
2023-01-02T13:39:20.725Z,14.91
2023-01-02T13:42:46.633Z,14.66
2023-01-02T13:45:55.381Z,13.92
2023-01-02T13:49:03.586Z,13.32
2023-01-02T13:52:17.128Z,12.40
2023-01-02T13:55:32.473Z,12.51
2023-01-02T13:58:45.046Z,11.69
2023-01-02T14:02:17.285Z,10.98
2023-01-02T14:06:01.465Z,9.77
2023-01-02T14:09:11.038Z,9.47
2023-01-02T14:12:18.685Z,9.81
2023-01-02T14:15:27.072Z,9.71
2023-01-02T14:18:33.229Z,9.14
2023-01-02T14:21:44.119Z,9.09
2023-01-02T14:24:52.766Z,8.97
2023-01-02T14:28:03.383Z,8.68
2023-01-02T14:31:19.988Z,8.47
2023-01-02T14:34:27.271Z,8.41
2023-01-02T14:37:42.457Z,8.51
2023-01-02T14:40:49.339Z,8.26
2023-01-02T14:43:57.203Z,8.06
2023-01-02T14:47:04.385Z,7.66
2023-01-02T14:50:16.109Z,7.46
2023-01-02T14:53:26.476Z,7.52
2023-01-02T14:56:36.820Z,7.27
2023-01-02T14:59:47.502Z,7.20
2023-01-02T15:02:59.868Z,7.10
2023-01-02T15:06:13.663Z,6.84
2023-01-02T15:09:28.199Z,6.92
2023-01-02T15:13:01.053Z,6.79
2023-01-02T15:16:11.614Z,6.73
2023-01-02T15:19:22.661Z,6.60
2023-01-02T15:22:31.612Z,6.62
2023-01-02T15:25:41.116Z,6.67
2023-01-02T15:28:56.549Z,6.61
2023-01-02T15:32:06.099Z,6.48
2023-01-02T15:35:14.750Z,6.40
2023-01-02T15:38:22.769Z,5.93
2023-01-02T15:41:29.363Z,5.96
2023-01-02T15:44:54.305Z,5.58
2023-01-02T15:48:03.077Z,5.36
2023-01-02T15:51:16.596Z,5.39
2023-01-02T15:54:22.833Z,5.31
2023-01-02T15:57:32.035Z,5.38
2023-01-02T16:00:40.908Z,5.42
2023-01-02T16:04:02.126Z,5.19
2023-01-02T16:07:17.380Z,4.83
2023-01-02T16:10:27.037Z,4.72
2023-01-02T16:13:54.141Z,4.85
2023-01-02T16:17:04.678Z,4.85
2023-01-02T16:20:20.190Z,5.05
2023-01-02T16:23:26.971Z,4.70
2023-01-02T16:26:41.266Z,4.71
2023-01-02T16:29:47.689Z,4.74
2023-01-02T16:32:54.348Z,4.41
2023-01-02T16:36:10.570Z,4.45
2023-01-02T16:39:42.164Z,4.36
2023-01-02T16:42:48.406Z,4.24
2023-01-02T16:45:54.910Z,4.10
2023-01-02T16:49:05.184Z,4.19
2023-01-02T16:52:13.516Z,4.06
2023-01-02T16:55:22.625Z,3.84
2023-01-02T16:58:30.082Z,3.77
2023-01-02T17:01:36.907Z,3.71
2023-01-02T17:04:43.555Z,3.72
2023-01-02T17:07:50.947Z,3.68
2023-01-02T17:10:58.845Z,3.44
2023-01-02T17:14:05.184Z,3.29
2023-01-02T17:17:11.415Z,3.56
2023-01-02T17:20:18.216Z,3.35
2023-01-02T17:23:26.050Z,3.29
2023-01-02T17:26:32.072Z,3.28
2023-01-02T17:29:38.149Z,3.29
2023-01-02T17:32:45.484Z,3.08
2023-01-02T17:35:51.899Z,3.05
2023-01-02T17:38:59.400Z,3.12
2023-01-02T17:42:06.737Z,3.04
2023-01-02T17:45:15.376Z,2.97
2023-01-02T17:48:24.744Z,3.08
2023-01-02T17:51:31.864Z,3.06
2023-01-02T17:54:39.438Z,3.04
2023-01-02T17:57:45.718Z,2.68
2023-01-02T18:00:53.105Z,2.81
2023-01-02T18:03:59.409Z,2.69
2023-01-02T18:07:06.071Z,2.75
2023-01-02T18:10:19.454Z,2.72
2023-01-02T18:13:28.368Z,2.39
2023-01-02T18:16:40.372Z,2.14
2023-01-02T18:19:46.812Z,2.30
2023-01-02T18:22:53.648Z,2.25
2023-01-02T18:26:02.499Z,2.30
2023-01-02T18:29:22.492Z,2.55
2023-01-02T18:32:33.827Z,2.42
2023-01-02T18:35:57.483Z,2.46
2023-01-02T18:39:14.801Z,2.34
2023-01-02T18:42:26.657Z,2.35
2023-01-02T18:45:33.349Z,2.23
2023-01-02T18:48:40.735Z,2.12
2023-01-02T18:51:47.227Z,2.05
2023-01-02T18:54:59.825Z,1.63
2023-01-02T18:58:33.532Z,1.57
2023-01-02T19:01:44.908Z,1.70
2023-01-02T19:04:53.041Z,1.79
2023-01-02T19:08:14.642Z,2.15
2023-01-02T19:11:41.467Z,2.04
2023-01-02T19:14:51.887Z,2.05
2023-01-02T19:17:59.141Z,1.55
2023-01-02T19:21:17.142Z,1.09
2023-01-02T19:24:25.466Z,1.09
2023-01-02T19:27:37.512Z,0.89
2023-01-02T19:30:45.953Z,1.17
2023-01-02T19:33:57.433Z,1.69
2023-01-02T19:37:29.659Z,1.60
2023-01-02T19:40:36.072Z,1.47
2023-01-02T19:43:43.076Z,1.58
2023-01-02T19:46:50.504Z,1.65
2023-01-02T19:49:57.236Z,1.82
2023-01-02T19:53:03.743Z,1.71
2023-01-02T19:56:10.279Z,1.63
2023-01-02T19:59:16.494Z,1.52
2023-01-02T20:02:25.194Z,1.43
2023-01-02T20:05:31.599Z,0.81
2023-01-02T20:08:38.316Z,0.87
2023-01-02T20:12:07.435Z,0.98
2023-01-02T20:15:17.570Z,0.75
2023-01-02T20:18:25.084Z,0.92
2023-01-02T20:21:31.412Z,1.30
2023-01-02T20:24:37.607Z,0.99
2023-01-02T20:27:43.737Z,1.15
2023-01-02T20:30:51.519Z,1.15
2023-01-02T20:33:59.446Z,1.17
2023-01-02T20:37:05.990Z,1.15
2023-01-02T20:40:13.284Z,1.41
2023-01-02T20:43:19.702Z,1.23
2023-01-02T20:46:26.225Z,1.15
2023-01-02T20:49:33.959Z,1.04
2023-01-02T20:52:40.325Z,1.21
2023-01-02T20:55:46.617Z,0.92
2023-01-02T20:58:52.958Z,0.90
2023-01-02T21:01:59.292Z,1.00
2023-01-02T21:05:07.449Z,0.94
2023-01-02T21:08:13.629Z,0.82
2023-01-02T21:11:19.957Z,0.95
2023-01-02T21:14:26.073Z,0.84
2023-01-02T21:17:32.023Z,0.69
2023-01-02T21:20:45.830Z,0.50
2023-01-02T21:23:53.291Z,0.66
2023-01-02T21:26:59.796Z,0.73
2023-01-02T21:30:06.736Z,0.57
2023-01-02T21:33:13.996Z,0.78
2023-01-02T21:36:21.809Z,0.54
2023-01-02T21:39:28.332Z,0.51
2023-01-02T21:42:40.793Z,0.14
2023-01-02T21:45:50.997Z,0.37
2023-01-02T21:48:57.607Z,0.19
2023-01-02T21:52:05.659Z,0.12
2023-01-02T21:55:17.572Z,0.11
2023-01-02T21:58:23.712Z,0.27
2023-01-02T22:01:29.993Z,0.19
2023-01-02T22:04:37.072Z,0.74
2023-01-02T22:07:44.741Z,0.61
2023-01-02T22:10:51.315Z,0.52
2023-01-02T22:13:58.074Z,0.61
2023-01-02T22:17:06.707Z,0.57
2023-01-02T22:20:13.260Z,0.03
2023-01-02T22:23:21.077Z,0.17
2023-01-02T22:26:27.361Z,-0.06
2023-01-02T22:30:09.695Z,-0.20
2023-01-02T22:33:01.779Z,-0.13
2023-01-02T22:36:08.940Z,-0.15
2023-01-02T22:39:32.355Z,0.21
2023-01-02T22:43:06.126Z,0.02
2023-01-02T22:46:18.934Z,0.16
2023-01-02T22:49:29.159Z,0.18
2023-01-02T22:52:36.350Z,0.36
2023-01-02T22:55:44.100Z,0.34
2023-01-02T22:58:51.405Z,0.36
2023-01-02T23:01:57.827Z,0.40
2023-01-02T23:05:03.921Z,0.41
2023-01-02T23:08:10.162Z,0.29
2023-01-02T23:11:18.652Z,0.19
2023-01-02T23:14:25.069Z,0.03
2023-01-02T23:17:49.424Z,-0.29
2023-01-02T23:20:55.703Z,0.10
2023-01-02T23:24:02.762Z,-0.04
2023-01-02T23:27:12.214Z,-0.35
2023-01-02T23:30:19.063Z,0.02
2023-01-02T23:33:25.279Z,0.19
2023-01-02T23:36:31.852Z,-0.03
2023-01-02T23:39:38.412Z,-0.16
2023-01-02T23:42:46.216Z,-0.35
2023-01-02T23:45:52.854Z,-0.14
2023-01-02T23:48:59.845Z,-0.55
2023-01-02T23:52:06.537Z,-0.62
2023-01-02T23:55:12.875Z,-0.39
2023-01-02T23:58:20.850Z,-0.53
